Koutalianos — A8WZ2 — position and weather

sailwx.info

Track history (hours):
 
Tides and Currents Weather Stations Pressure Air Temp Water Temp Dewpoint Dewpoint Depression Visibility Wind Speed Wind Dir Waves Ship Positions

Koutalianos

Last reported at 2017-Oct-12 19:27 UTC. Time now 2017-Oct-23 06:30 UTC.
Position N 49°05' W 005°55'.
Warning: this ship's position is 10 days out of date.

Length 230 m; draft 7.3 m.

Type: Cargo ship. MMSI: 636014865.

Date/timePositionNaut miles runAvg speedWind from/ knotsBaromVisibWave heightAir tempDewpointWater temp
2017-Oct-12 19:27N 49°05' W 005°55'612.4
2017-Oct-12 18:57N 49°07' W 005°47'612.5
2017-Oct-12 18:30N 49°10' W 005°39'612.5
2017-Oct-12 18:00N 49°12' W 005°30'612.8
2017-Oct-12 17:31N 49°15' W 005°22'612.8
2017-Oct-12 17:00N 49°18' W 005°13'713.2
2017-Oct-12 16:30N 49°21' W 005°04'713.8
2017-Oct-12 16:00N 49°23' W 004°54'714.1
2017-Oct-12 15:30N 49°26' W 004°44'714.1
2017-Oct-12 15:00N 49°29' W 004°34'714.2
2017-Oct-12 14:30N 49°32' W 004°24'714.2
2017-Oct-12 14:00N 49°35' W 004°15'714.0
2017-Oct-12 13:30N 49°38' W 004°05'713.5
2017-Oct-12 12:57N 49°41' W 003°54'613.3
2017-Oct-12 12:31N 49°44' W 003°46'713.0
2017-Oct-12 12:00N 49°47' W 003°37'612.6
2017-Oct-12 11:30N 49°50' W 003°29'612.7
2017-Oct-12 11:01N 49°53' W 003°20'612.8
2017-Oct-12 10:31N 49°56' W 003°11'612.9
2017-Oct-12 10:00N 49°59' W 003°03'713.0
2017-Oct-12 09:30N 49°60' W 002°52'713.5
2017-Oct-12 09:00N 50°01' W 002°42'5215.5
2017-Oct-12 05:40N 50°15' W 001°24'2215.1
2017-Oct-12 04:13N 50°20' W 000°51'1613.3
2017-Oct-12 03:00N 50°25' W 000°27'612.5
2017-Oct-12 02:30N 50°26' W 000°17'612.0
2017-Oct-12 02:00N 50°28' W 000°08'611.4
2017-Oct-12 01:30N 50°30' E 000°00'611.0
2017-Oct-12 01:00N 50°31' E 000°09'510.8
2017-Oct-12 00:30N 50°33' E 000°17'510.9
2017-Oct-12 00:00N 50°35' E 000°25'611.2
2017-Oct-11 23:30N 50°36' E 000°33'611.8
2017-Oct-11 23:00N 50°39' E 000°41'612.4
2017-Oct-11 22:30N 50°43' E 000°49'612.6
2017-Oct-11 22:00N 50°46' E 000°58'612.7
2017-Oct-11 21:30N 50°50' E 001°06'612.5
2017-Oct-11 21:00N 50°53' E 001°14'612.7
2017-Oct-11 20:30N 50°58' E 001°22'612.1
2017-Oct-11 20:00N 51°02' E 001°28'611.3
2017-Oct-11 19:30N 51°06' E 001°35'510.7
2017-Oct-11 19:00N 51°10' E 001°41'510.7
2017-Oct-11 18:30N 51°14' E 001°47'510.4
2017-Oct-11 18:00N 51°18' E 001°50'510.2
2017-Oct-11 17:30N 51°23' E 001°54'5 9.9
2017-Oct-11 17:00N 51°27' E 001°58'141 7.1
2017-Oct-10 21:03N 53°33' E 000°10'113.5
2017-Oct-10 21:00N 53°33' E 000°08'713.3
2017-Oct-10 20:30N 53°36' W 000°02'510.9
2017-Oct-10 20:00N 53°38' W 000°10'1 2.0
2017-Oct-10 19:28N 53°38' W 000°12'0 0.0
2017-Oct-10 18:58N 53°38' W 000°12'0 0.0
2017-Oct-10 18:28N 53°38' W 000°12'0 0.0
2017-Oct-10 17:58N 53°38' W 000°12'0 0.0
2017-Oct-10 17:28N 53°38' W 000°12'0 0.0
2017-Oct-10 16:58N 53°38' W 000°12'0 0.0
2017-Oct-10 16:28N 53°38' W 000°12'0 0.0
2017-Oct-10 15:52N 53°38' W 000°12'0 0.0
2017-Oct-10 15:26N 53°38' W 000°12'0 0.0
2017-Oct-10 14:58N 53°38' W 000°12'0 0.0
2017-Oct-10 13:58N 53°38' W 000°12'0 0.0
2017-Oct-10 13:25N 53°38' W 000°12'0 0.0
2017-Oct-10 12:58N 53°38' W 000°12'0 0.0
2017-Oct-10 12:25N 53°38' W 000°12'0 0.0
2017-Oct-10 11:58N 53°38' W 000°12'0 0.0
2017-Oct-10 11:28N 53°38' W 000°12'0 0.0
2017-Oct-10 10:58N 53°38' W 000°12'0 0.0
2017-Oct-10 10:10N 53°38' W 000°12'0 0.0
2017-Oct-10 09:50N 53°38' W 000°12'0 0.0
2017-Oct-10 09:25N 53°38' W 000°12'0 0.0
2017-Oct-10 08:58N 53°38' W 000°12'0 0.0
2017-Oct-10 08:13N 53°38' W 000°12'0 0.0
2017-Oct-10 07:55N 53°38' W 000°12'0 0.0
2017-Oct-10 07:20N 53°38' W 000°12'0 0.0
2017-Oct-10 06:50N 53°38' W 000°12'0 0.0
2017-Oct-10 06:25N 53°38' W 000°12'0 0.0
2017-Oct-10 05:58N 53°38' W 000°12'0 0.0
2017-Oct-10 05:28N 53°38' W 000°12'0 0.0
2017-Oct-10 04:55N 53°38' W 000°12'0 0.0
2017-Oct-10 04:25N 53°38' W 000°12'0 0.0
2017-Oct-10 03:55N 53°38' W 000°12'0 0.0
2017-Oct-10 03:28N 53°38' W 000°12'0 0.0
2017-Oct-10 02:58N 53°38' W 000°12'0 0.0
2017-Oct-10 02:25N 53°38' W 000°12'0 0.0
2017-Oct-10 01:58N 53°38' W 000°12'0 0.0
2017-Oct-10 01:29N 53°38' W 000°12'0 0.0
2017-Oct-10 00:58N 53°38' W 000°12'0 0.0
2017-Oct-10 00:28N 53°38' W 000°12'0 0.0
2017-Oct-09 23:58N 53°38' W 000°12'0 0.0
2017-Oct-09 23:25N 53°38' W 000°12'0 0.0
2017-Oct-09 22:52N 53°38' W 000°12'0 0.0
2017-Oct-09 22:25N 53°38' W 000°12'0 0.0
2017-Oct-09 21:58N 53°38' W 000°12'0 0.0
2017-Oct-09 21:28N 53°38' W 000°12'0 0.0
2017-Oct-09 20:58N 53°38' W 000°12'0 0.0
2017-Oct-09 20:22N 53°38' W 000°12'0 0.0
2017-Oct-09 19:52N 53°38' W 000°12'0 0.0
2017-Oct-09 19:28N 53°38' W 000°12'0 0.0
2017-Oct-09 18:46N 53°38' W 000°12'0 0.0
2017-Oct-09 18:28N 53°38' W 000°12'0 0.0
2017-Oct-09 17:58N 53°38' W 000°12'0 0.0
2017-Oct-09 17:28N 53°38' W 000°12'0 0.0
2017-Oct-09 16:58N 53°38' W 000°12'0 0.0
2017-Oct-09 16:28N 53°38' W 000°12'0 0.0
2017-Oct-09 15:58N 53°38' W 000°12'0 0.0
2017-Oct-09 15:28N 53°38' W 000°12'0 0.0
2017-Oct-09 14:58N 53°38' W 000°12'0 0.0
2017-Oct-09 14:28N 53°38' W 000°12'0 0.0
2017-Oct-09 13:58N 53°38' W 000°12'0 0.0
2017-Oct-09 13:25N 53°38' W 000°12'0 0.0
2017-Oct-09 12:58N 53°38' W 000°12'0 0.0
2017-Oct-09 12:26N 53°38' W 000°12'0 0.0
2017-Oct-09 11:59N 53°38' W 000°12'0 0.0
2017-Oct-09 11:25N 53°38' W 000°12'0 0.0
2017-Oct-09 10:55N 53°38' W 000°12'0 0.0
2017-Oct-09 10:25N 53°38' W 000°12'0 0.0
2017-Oct-09 09:55N 53°38' W 000°12'0 0.0
2017-Oct-09 09:25N 53°38' W 000°12'0 0.0
2017-Oct-09 08:55N 53°38' W 000°12'0 0.0
2017-Oct-09 08:22N 53°38' W 000°12'0 0.0
2017-Oct-09 07:58N 53°38' W 000°12'0 0.0
2017-Oct-09 07:19N 53°38' W 000°12'0 0.0
2017-Oct-09 06:58N 53°38' W 000°12'0 0.0
2017-Oct-09 06:25N 53°38' W 000°12'0 0.0
2017-Oct-09 05:59N 53°38' W 000°12'0 0.0
2017-Oct-09 05:28N 53°38' W 000°12'0 0.0
2017-Oct-09 04:55N 53°38' W 000°12'0 0.0
2017-Oct-09 04:28N 53°38' W 000°12'0 0.0
2017-Oct-09 03:52N 53°38' W 000°12'0 0.0
2017-Oct-09 03:25N 53°38' W 000°12'0 0.0
2017-Oct-09 02:49N 53°38' W 000°12'0 0.0
2017-Oct-09 02:28N 53°38' W 000°12'0 0.0
2017-Oct-09 01:58N 53°38' W 000°12'0 0.0
2017-Oct-09 01:28N 53°38' W 000°12'0 0.0
2017-Oct-09 00:55N 53°38' W 000°12'0 0.0
2017-Oct-09 00:29N 53°38' W 000°12'0 0.0
2017-Oct-08 23:58N 53°38' W 000°12'0 0.0
2017-Oct-08 23:28N 53°38' W 000°12'0 0.0
2017-Oct-08 22:58N 53°38' W 000°12'0 0.0
2017-Oct-08 22:25N 53°38' W 000°12'0 0.0
2017-Oct-08 21:31N 53°38' W 000°12'0 0.0
2017-Oct-08 21:25N 53°38' W 000°12'0 0.0
2017-Oct-08 20:58N 53°38' W 000°12'0 0.0
2017-Oct-08 20:25N 53°38' W 000°12'0 0.0
2017-Oct-08 19:55N 53°38' W 000°12'0 0.0
2017-Oct-08 19:28N 53°38' W 000°12'0 0.0
2017-Oct-08 18:52N 53°38' W 000°12'0 0.0
2017-Oct-08 18:25N 53°38' W 000°12'0 0.0
2017-Oct-08 17:58N 53°38' W 000°12'0 0.0
2017-Oct-08 17:28N 53°38' W 000°12'0 0.0
2017-Oct-08 16:58N 53°38' W 000°12'0 0.0
2017-Oct-08 16:28N 53°38' W 000°12'0 0.0
2017-Oct-08 15:59N 53°38' W 000°12'0 0.0
2017-Oct-08 15:28N 53°38' W 000°12'0 0.0
2017-Oct-08 14:59N 53°38' W 000°12'0 0.0
2017-Oct-08 14:28N 53°38' W 000°12'0 0.0
2017-Oct-08 13:55N 53°38' W 000°12'0 0.0
2017-Oct-08 13:16N 53°38' W 000°12'0 0.0
2017-Oct-08 12:55N 53°38' W 000°12'0 0.0
2017-Oct-08 12:28N 53°38' W 000°12'0 0.0
2017-Oct-08 11:53N 53°38' W 000°12'0 0.0
2017-Oct-08 11:28N 53°38' W 000°12'0 0.0
2017-Oct-08 10:58N 53°38' W 000°12'0 0.0
2017-Oct-08 10:25N 53°38' W 000°12'0 0.0
2017-Oct-08 09:56N 53°38' W 000°12'0 0.0
2017-Oct-08 09:29N 53°38' W 000°12'0 0.0
2017-Oct-08 08:49N 53°38' W 000°12'0 0.0
2017-Oct-08 08:05N 53°38' W 000°12'0 0.1
2017-Oct-08 08:00N 53°38' W 000°12'0 0.1
2017-Oct-08 07:30N 53°38' W 000°12'1 1.8
2017-Oct-08 07:00N 53°38' W 000°10'2 4.7
2017-Oct-08 06:30N 53°37' W 000°06'4 8.0
2017-Oct-08 06:00N 53°37' E 000°00'710.3
2017-Oct-08 05:20N 53°33' E 000°10'11 8.5
2017-Oct-08 04:04N 53°41' E 000°23'0 0.2
2017-Oct-08 03:37N 53°41' E 000°23'0 0.8
2017-Oct-08 03:26N 53°41' E 000°23'  
2017-Oct-03 01:01N 52°25' E 002°40'212.4
2017-Oct-03 00:53N 52°24' E 002°40'612.5
2017-Oct-03 00:23N 52°18' E 002°40'4911.7
2017-Oct-02 20:10N 51°31' E 002°14'211.3
2017-Oct-02 20:00N 51°29' E 002°12'611.2
2017-Oct-02 19:30N 51°25' E 002°07'  
Track history (hours):
 
Tides and Currents Weather Stations Pressure Air Temp Water Temp Dewpoint Dewpoint Depression Visibility Wind Speed Wind Dir Waves Ship Positions

Koutalianos

Last reported at 2017-Oct-12 19:27 UTC. Time now 2017-Oct-23 06:30 UTC.
Position N 49°05' W 005°55'.
Warning: this ship's position is 10 days out of date.

Length 230 m; draft 7.3 m.

Type: Cargo ship. MMSI: 636014865.

Date/timePositionNaut miles runAvg speedWind from/ knotsBaromVisibWave heightAir tempDewpointWater temp
2017-Oct-12 19:27N 49°05' W 005°55'612.4
2017-Oct-12 18:57N 49°07' W 005°47'612.5
2017-Oct-12 18:30N 49°10' W 005°39'612.5
2017-Oct-12 18:00N 49°12' W 005°30'612.8
2017-Oct-12 17:31N 49°15' W 005°22'612.8
2017-Oct-12 17:00N 49°18' W 005°13'713.2
2017-Oct-12 16:30N 49°21' W 005°04'713.8
2017-Oct-12 16:00N 49°23' W 004°54'714.1
2017-Oct-12 15:30N 49°26' W 004°44'714.1
2017-Oct-12 15:00N 49°29' W 004°34'714.2
2017-Oct-12 14:30N 49°32' W 004°24'714.2
2017-Oct-12 14:00N 49°35' W 004°15'714.0
2017-Oct-12 13:30N 49°38' W 004°05'713.5
2017-Oct-12 12:57N 49°41' W 003°54'613.3
2017-Oct-12 12:31N 49°44' W 003°46'713.0
2017-Oct-12 12:00N 49°47' W 003°37'612.6
2017-Oct-12 11:30N 49°50' W 003°29'612.7
2017-Oct-12 11:01N 49°53' W 003°20'612.8
2017-Oct-12 10:31N 49°56' W 003°11'612.9
2017-Oct-12 10:00N 49°59' W 003°03'713.0
2017-Oct-12 09:30N 49°60' W 002°52'713.5
2017-Oct-12 09:00N 50°01' W 002°42'5215.5
2017-Oct-12 05:40N 50°15' W 001°24'2215.1
2017-Oct-12 04:13N 50°20' W 000°51'1613.3
2017-Oct-12 03:00N 50°25' W 000°27'612.5
2017-Oct-12 02:30N 50°26' W 000°17'612.0
2017-Oct-12 02:00N 50°28' W 000°08'611.4
2017-Oct-12 01:30N 50°30' E 000°00'611.0
2017-Oct-12 01:00N 50°31' E 000°09'510.8
2017-Oct-12 00:30N 50°33' E 000°17'510.9
2017-Oct-12 00:00N 50°35' E 000°25'611.2
2017-Oct-11 23:30N 50°36' E 000°33'611.8
2017-Oct-11 23:00N 50°39' E 000°41'612.4
2017-Oct-11 22:30N 50°43' E 000°49'612.6
2017-Oct-11 22:00N 50°46' E 000°58'612.7
2017-Oct-11 21:30N 50°50' E 001°06'612.5
2017-Oct-11 21:00N 50°53' E 001°14'612.7
2017-Oct-11 20:30N 50°58' E 001°22'612.1
2017-Oct-11 20:00N 51°02' E 001°28'611.3
2017-Oct-11 19:30N 51°06' E 001°35'510.7
2017-Oct-11 19:00N 51°10' E 001°41'510.7
2017-Oct-11 18:30N 51°14' E 001°47'510.4
2017-Oct-11 18:00N 51°18' E 001°50'510.2
2017-Oct-11 17:30N 51°23' E 001°54'5 9.9
2017-Oct-11 17:00N 51°27' E 001°58'141 7.1
2017-Oct-10 21:03N 53°33' E 000°10'113.5
2017-Oct-10 21:00N 53°33' E 000°08'713.3
2017-Oct-10 20:30N 53°36' W 000°02'510.9
2017-Oct-10 20:00N 53°38' W 000°10'1 2.0
2017-Oct-10 19:28N 53°38' W 000°12'0 0.0
2017-Oct-10 18:58N 53°38' W 000°12'0 0.0
2017-Oct-10 18:28N 53°38' W 000°12'0 0.0
2017-Oct-10 17:58N 53°38' W 000°12'0 0.0
2017-Oct-10 17:28N 53°38' W 000°12'0 0.0
2017-Oct-10 16:58N 53°38' W 000°12'0 0.0
2017-Oct-10 16:28N 53°38' W 000°12'0 0.0
2017-Oct-10 15:52N 53°38' W 000°12'0 0.0
2017-Oct-10 15:26N 53°38' W 000°12'0 0.0
2017-Oct-10 14:58N 53°38' W 000°12'0 0.0
2017-Oct-10 13:58N 53°38' W 000°12'0 0.0
2017-Oct-10 13:25N 53°38' W 000°12'0 0.0
2017-Oct-10 12:58N 53°38' W 000°12'0 0.0
2017-Oct-10 12:25N 53°38' W 000°12'0 0.0
2017-Oct-10 11:58N 53°38' W 000°12'0 0.0
2017-Oct-10 11:28N 53°38' W 000°12'0 0.0
2017-Oct-10 10:58N 53°38' W 000°12'0 0.0
2017-Oct-10 10:10N 53°38' W 000°12'0 0.0
2017-Oct-10 09:50N 53°38' W 000°12'0 0.0
2017-Oct-10 09:25N 53°38' W 000°12'0 0.0
2017-Oct-10 08:58N 53°38' W 000°12'0 0.0
2017-Oct-10 08:13N 53°38' W 000°12'0 0.0
2017-Oct-10 07:55N 53°38' W 000°12'0 0.0
2017-Oct-10 07:20N 53°38' W 000°12'0 0.0
2017-Oct-10 06:50N 53°38' W 000°12'0 0.0
2017-Oct-10 06:25N 53°38' W 000°12'0 0.0
2017-Oct-10 05:58N 53°38' W 000°12'0 0.0
2017-Oct-10 05:28N 53°38' W 000°12'0 0.0
2017-Oct-10 04:55N 53°38' W 000°12'0 0.0
2017-Oct-10 04:25N 53°38' W 000°12'0 0.0
2017-Oct-10 03:55N 53°38' W 000°12'0 0.0
2017-Oct-10 03:28N 53°38' W 000°12'0 0.0
2017-Oct-10 02:58N 53°38' W 000°12'0 0.0
2017-Oct-10 02:25N 53°38' W 000°12'0 0.0
2017-Oct-10 01:58N 53°38' W 000°12'0 0.0
2017-Oct-10 01:29N 53°38' W 000°12'0 0.0
2017-Oct-10 00:58N 53°38' W 000°12'0 0.0
2017-Oct-10 00:28N 53°38' W 000°12'0 0.0
2017-Oct-09 23:58N 53°38' W 000°12'0 0.0
2017-Oct-09 23:25N 53°38' W 000°12'0 0.0
2017-Oct-09 22:52N 53°38' W 000°12'0 0.0
2017-Oct-09 22:25N 53°38' W 000°12'0 0.0
2017-Oct-09 21:58N 53°38' W 000°12'0 0.0
2017-Oct-09 21:28N 53°38' W 000°12'0 0.0
2017-Oct-09 20:58N 53°38' W 000°12'0 0.0
2017-Oct-09 20:22N 53°38' W 000°12'0 0.0
2017-Oct-09 19:52N 53°38' W 000°12'0 0.0
2017-Oct-09 19:28N 53°38' W 000°12'0 0.0
2017-Oct-09 18:46N 53°38' W 000°12'0 0.0
2017-Oct-09 18:28N 53°38' W 000°12'0 0.0
2017-Oct-09 17:58N 53°38' W 000°12'0 0.0
2017-Oct-09 17:28N 53°38' W 000°12'0 0.0
2017-Oct-09 16:58N 53°38' W 000°12'0 0.0
2017-Oct-09 16:28N 53°38' W 000°12'0 0.0
2017-Oct-09 15:58N 53°38' W 000°12'0 0.0
2017-Oct-09 15:28N 53°38' W 000°12'0 0.0
2017-Oct-09 14:58N 53°38' W 000°12'0 0.0
2017-Oct-09 14:28N 53°38' W 000°12'0 0.0
2017-Oct-09 13:58N 53°38' W 000°12'0 0.0
2017-Oct-09 13:25N 53°38' W 000°12'0 0.0
2017-Oct-09 12:58N 53°38' W 000°12'0 0.0
2017-Oct-09 12:26N 53°38' W 000°12'0 0.0
2017-Oct-09 11:59N 53°38' W 000°12'0 0.0
2017-Oct-09 11:25N 53°38' W 000°12'0 0.0
2017-Oct-09 10:55N 53°38' W 000°12'0 0.0
2017-Oct-09 10:25N 53°38' W 000°12'0 0.0
2017-Oct-09 09:55N 53°38' W 000°12'0 0.0
2017-Oct-09 09:25N 53°38' W 000°12'0 0.0
2017-Oct-09 08:55N 53°38' W 000°12'0 0.0
2017-Oct-09 08:22N 53°38' W 000°12'0 0.0
2017-Oct-09 07:58N 53°38' W 000°12'0 0.0
2017-Oct-09 07:19N 53°38' W 000°12'0 0.0
2017-Oct-09 06:58N 53°38' W 000°12'0 0.0
2017-Oct-09 06:25N 53°38' W 000°12'0 0.0
2017-Oct-09 05:59N 53°38' W 000°12'0 0.0
2017-Oct-09 05:28N 53°38' W 000°12'0 0.0
2017-Oct-09 04:55N 53°38' W 000°12'0 0.0
2017-Oct-09 04:28N 53°38' W 000°12'0 0.0
2017-Oct-09 03:52N 53°38' W 000°12'0 0.0
2017-Oct-09 03:25N 53°38' W 000°12'0 0.0
2017-Oct-09 02:49N 53°38' W 000°12'0 0.0
2017-Oct-09 02:28N 53°38' W 000°12'0 0.0
2017-Oct-09 01:58N 53°38' W 000°12'0 0.0
2017-Oct-09 01:28N 53°38' W 000°12'0 0.0
2017-Oct-09 00:55N 53°38' W 000°12'0 0.0
2017-Oct-09 00:29N 53°38' W 000°12'0 0.0
2017-Oct-08 23:58N 53°38' W 000°12'0 0.0
2017-Oct-08 23:28N 53°38' W 000°12'0 0.0
2017-Oct-08 22:58N 53°38' W 000°12'0 0.0
2017-Oct-08 22:25N 53°38' W 000°12'0 0.0
2017-Oct-08 21:31N 53°38' W 000°12'0 0.0
2017-Oct-08 21:25N 53°38' W 000°12'0 0.0
2017-Oct-08 20:58N 53°38' W 000°12'0 0.0
2017-Oct-08 20:25N 53°38' W 000°12'0 0.0
2017-Oct-08 19:55N 53°38' W 000°12'0 0.0
2017-Oct-08 19:28N 53°38' W 000°12'0 0.0
2017-Oct-08 18:52N 53°38' W 000°12'0 0.0
2017-Oct-08 18:25N 53°38' W 000°12'0 0.0
2017-Oct-08 17:58N 53°38' W 000°12'0 0.0
2017-Oct-08 17:28N 53°38' W 000°12'0 0.0
2017-Oct-08 16:58N 53°38' W 000°12'0 0.0
2017-Oct-08 16:28N 53°38' W 000°12'0 0.0
2017-Oct-08 15:59N 53°38' W 000°12'0 0.0
2017-Oct-08 15:28N 53°38' W 000°12'0 0.0
2017-Oct-08 14:59N 53°38' W 000°12'0 0.0
2017-Oct-08 14:28N 53°38' W 000°12'0 0.0
2017-Oct-08 13:55N 53°38' W 000°12'0 0.0
2017-Oct-08 13:16N 53°38' W 000°12'0 0.0
2017-Oct-08 12:55N 53°38' W 000°12'0 0.0
2017-Oct-08 12:28N 53°38' W 000°12'0 0.0
2017-Oct-08 11:53N 53°38' W 000°12'0 0.0
2017-Oct-08 11:28N 53°38' W 000°12'0 0.0
2017-Oct-08 10:58N 53°38' W 000°12'0 0.0
2017-Oct-08 10:25N 53°38' W 000°12'0 0.0
2017-Oct-08 09:56N 53°38' W 000°12'0 0.0
2017-Oct-08 09:29N 53°38' W 000°12'0 0.0
2017-Oct-08 08:49N 53°38' W 000°12'0 0.0
2017-Oct-08 08:05N 53°38' W 000°12'0 0.1
2017-Oct-08 08:00N 53°38' W 000°12'0 0.1
2017-Oct-08 07:30N 53°38' W 000°12'1 1.8
2017-Oct-08 07:00N 53°38' W 000°10'2 4.7
2017-Oct-08 06:30N 53°37' W 000°06'4 8.0
2017-Oct-08 06:00N 53°37' E 000°00'710.3
2017-Oct-08 05:20N 53°33' E 000°10'11 8.5
2017-Oct-08 04:04N 53°41' E 000°23'0 0.2
2017-Oct-08 03:37N 53°41' E 000°23'0 0.8
2017-Oct-08 03:26N 53°41' E 000°23'  
2017-Oct-03 01:01N 52°25' E 002°40'212.4
2017-Oct-03 00:53N 52°24' E 002°40'612.5
2017-Oct-03 00:23N 52°18' E 002°40'4911.7
2017-Oct-02 20:10N 51°31' E 002°14'211.3
2017-Oct-02 20:00N 51°29' E 002°12'611.2
2017-Oct-02 19:30N 51°25' E 002°07'  

Dump ship's entire track history